This is the latest recevied weather packets stored in our database for station/object PE2ETE-15. If no packets are shown the sender has not sent any weather packets the latest 1 day(s).
| Time | Temp. | Humidity | Pressure | Rain* | Wind** | Luminosity | Snow |
|---|---|---|---|---|---|---|---|
| 1778103557 | 7.22° C | 69% | 1015.8 hPa | - | - | - | - |
| 1778102663 | 7.78° C | 68% | 1015.9 hPa | - | - | - | - |
| 1778101763 | 8.33° C | 67% | 1015.6 hPa | - | - | - | - |
| 1778099063 | 9.44° C | 66% | 1015.6 hPa | - | - | - | - |
| 1778098156 | 9.44° C | 66% | 1015.6 hPa | - | - | - | - |
| 1778097263 | 10° C | 66% | 1015.4 hPa | - | - | - | - |
| 1778097256 | 10° C | 66% | 1015.4 hPa | - | - | - | - |
| 1778096365 | 10.56° C | 65% | 1015.2 hPa | - | - | - | - |
| 1778096356 | 10.56° C | 65% | 1015.2 hPa | - | - | - | - |
| 1778095455 | 10.56° C | 66% | 1014.9 hPa | - | - | - | - |
| 1778094563 | 11.11° C | 68% | 1014.6 hPa | - | - | - | - |
| 1778093330 | 11.67° C | 63% | 1014.5 hPa | - | - | - | - |
| 1778087017 | 13.33° C | 58% | 1013.5 hPa | - | - | - | - |
| 1778086122 | 13.33° C | 59% | 1013.4 hPa | - | - | - | - |
| 1778086117 | 13.33° C | 59% | 1013.4 hPa | - | - | - | - |
| 1778078916 | 14.44° C | 62% | 1013.1 hPa | - | - | - | - |
| 1778078020 | 14.44° C | 63% | 1013 hPa | - | - | - | - |
| 1778078016 | 14.44° C | 63% | 1013 hPa | - | - | - | - |
| 1778077125 | 14.44° C | 61% | 1013.1 hPa | - | - | - | - |
| 1778072621 | 14.44° C | 61% | 1012.9 hPa | - | - | - | - |
| 1778071714 | 15° C | 60% | 1012.7 hPa | - | - | - | - |
| 1778068117 | 14.44° C | 63% | 1012.5 hPa | - | - | - | - |
| 1778066317 | 15° C | 63% | 1012.5 hPa | - | - | - | - |
| 1778065422 | 14.44° C | 64% | 1012.4 hPa | - | - | - | - |
| 1778065417 | 14.44° C | 64% | 1012.4 hPa | - | - | - | - |
* Rain since midnight (hover to see other rain measurements)
** Current wind speed in m/s (hover to see current wind gust speed)